createdAt,value
2017-08-24T00:00:05.828Z,85.17
2017-08-24T00:01:18.376Z,85.27
2017-08-24T00:02:31.022Z,84.79
2017-08-24T00:03:43.350Z,84.98
2017-08-24T00:04:55.033Z,85.27
2017-08-24T00:06:07.280Z,85.27
2017-08-24T00:07:19.525Z,84.6
2017-08-24T00:08:32.158Z,85.36
2017-08-24T00:09:44.945Z,86.03
2017-08-24T00:10:57.205Z,85.46
2017-08-24T00:12:09.439Z,84.5
2017-08-24T00:13:22.012Z,84.41
2017-08-24T00:14:34.611Z,83.93
2017-08-24T00:15:47.148Z,83.36
2017-08-24T00:16:59.467Z,84.12
2017-08-24T00:18:11.715Z,83.26
2017-08-24T00:19:24.286Z,83.45
2017-08-24T00:20:36.605Z,84.41
2017-08-24T00:21:48.897Z,84.22
2017-08-24T00:23:01.222Z,84.12
2017-08-24T00:24:13.844Z,84.22
2017-08-24T00:25:26.110Z,84.03
2017-08-24T00:26:38.717Z,84.22
2017-08-24T00:27:51.282Z,84.6
2017-08-24T00:29:03.838Z,84.69
2017-08-24T00:30:16.086Z,84.5
2017-08-24T00:31:28.125Z,84.5
2017-08-24T00:32:40.686Z,84.56
2017-08-24T00:33:52.923Z,84.65
2017-08-24T00:35:04.876Z,83.7
2017-08-24T00:36:16.821Z,84.36
2017-08-24T00:37:29.456Z,84.27
2017-08-24T00:38:42.062Z,84.75
2017-08-24T00:39:54.657Z,84.56
2017-08-24T00:41:06.921Z,84.65
2017-08-24T00:42:19.217Z,84.17
2017-08-24T00:43:31.847Z,84.27
2017-08-24T00:44:44.408Z,84.08
2017-08-24T00:45:56.640Z,84.08
2017-08-24T00:47:08.607Z,84.46
2017-08-24T00:48:20.854Z,84.27
2017-08-24T00:49:32.847Z,84.46
2017-08-24T00:50:45.451Z,84.17
2017-08-24T00:51:57.441Z,84.17
2017-08-24T00:53:10.011Z,84.27
2017-08-24T00:54:22.669Z,83.89
2017-08-24T00:55:34.993Z,84.08
2017-08-24T00:56:47.221Z,84.27
2017-08-24T00:57:59.221Z,84.27
2017-08-24T00:59:11.515Z,83.89
2017-08-24T01:00:24.089Z,84.36
2017-08-24T01:01:36.692Z,84.36
2017-08-24T01:02:48.983Z,84.27
2017-08-24T01:04:01.506Z,83.32
2017-08-24T01:05:13.474Z,83.7
2017-08-24T01:06:25.993Z,84.17
2017-08-24T01:07:38.294Z,84.08
2017-08-24T01:08:50.921Z,84.17
2017-08-24T01:10:03.566Z,84.56
2017-08-24T01:11:15.247Z,84.75
2017-08-24T01:12:27.866Z,84.46
2017-08-24T01:13:39.539Z,83.98
2017-08-24T01:14:52.157Z,83.98
2017-08-24T01:16:04.531Z,83.61
2017-08-24T01:17:16.830Z,82.18
2017-08-24T01:18:29.175Z,81.6
2017-08-24T01:19:41.757Z,81.6
2017-08-24T01:20:54.387Z,81.98
2017-08-24T01:22:06.692Z,82.56
2017-08-24T01:23:18.957Z,82.56
2017-08-24T01:24:31.252Z,82.93
2017-08-24T01:25:43.844Z,83.32
2017-08-24T01:26:56.116Z,82.46
2017-08-24T01:28:08.403Z,83.03
2017-08-24T01:29:20.683Z,82.56
2017-08-24T01:30:33.278Z,83.32
2017-08-24T01:31:45.876Z,82.46
2017-08-24T01:32:58.420Z,81.98
2017-08-24T01:34:11.048Z,81.6
2017-08-24T01:35:23.636Z,81.7
2017-08-24T01:36:35.913Z,81.7
2017-08-24T01:37:47.541Z,81.89
2017-08-24T01:38:59.870Z,81.51
2017-08-24T01:40:12.404Z,81.7
2017-08-24T01:41:24.964Z,81.98
2017-08-24T01:42:37.526Z,82.18
2017-08-24T01:43:50.044Z,82.08
2017-08-24T01:45:02.023Z,82.37
2017-08-24T01:46:14.671Z,82.18
2017-08-24T01:47:27.513Z,82.37
2017-08-24T01:48:39.823Z,81.7
2017-08-24T01:49:52.444Z,81.41
2017-08-24T01:51:04.725Z,81.7
2017-08-24T01:52:17.272Z,82.08
2017-08-24T01:53:29.818Z,81.79
2017-08-24T01:54:42.124Z,81.98
2017-08-24T01:55:54.457Z,82.27
2017-08-24T01:57:07.054Z,82.18
2017-08-24T01:58:19.678Z,82.27
2017-08-24T01:59:32.223Z,81.13
2017-08-24T02:00:44.508Z,81.03
2017-08-24T02:01:56.780Z,80.84
2017-08-24T02:03:09.365Z,80.94
2017-08-24T02:04:21.021Z,80.94
2017-08-24T02:05:33.604Z,80.84
2017-08-24T02:06:46.255Z,80.94
2017-08-24T02:07:58.515Z,81.41
2017-08-24T02:09:10.492Z,80.8
2017-08-24T02:10:23.059Z,80.99
2017-08-24T02:11:35.677Z,81.6
2017-08-24T02:12:48.239Z,81.7
2017-08-24T02:14:00.502Z,81.79
2017-08-24T02:15:13.087Z,81.85
2017-08-24T02:16:25.386Z,81.66
2017-08-24T02:17:38.041Z,81.47
2017-08-24T02:18:49.993Z,82.04
2017-08-24T02:20:01.979Z,81.66
2017-08-24T02:21:14.217Z,82.04
2017-08-24T02:22:26.792Z,81.66
2017-08-24T02:23:39.357Z,82.32
2017-08-24T02:24:51.905Z,81.85
2017-08-24T02:26:04.466Z,81.28
2017-08-24T02:27:16.799Z,81.56
2017-08-24T02:28:29.355Z,81.47
2017-08-24T02:29:41.620Z,81.76
2017-08-24T02:30:53.875Z,82.14
2017-08-24T02:32:06.457Z,82.04
2017-08-24T02:33:18.791Z,80.61
2017-08-24T02:34:31.420Z,80.8
2017-08-24T02:35:43.707Z,80.71
2017-08-24T02:36:55.954Z,80.9
2017-08-24T02:38:08.487Z,81.09
2017-08-24T02:39:20.157Z,80.42
2017-08-24T02:40:32.774Z,80.71
2017-08-24T02:41:45.036Z,80.33
2017-08-24T02:42:57.294Z,80.23
2017-08-24T02:44:09.852Z,80.13
2017-08-24T02:45:22.096Z,80.42
2017-08-24T02:46:34.404Z,80.61
2017-08-24T02:47:47.031Z,81.09
2017-08-24T02:48:58.996Z,80.99
2017-08-24T02:50:11.655Z,80.61
2017-08-24T02:51:24.212Z,80.33
2017-08-24T02:52:37.079Z,79.66
2017-08-24T02:53:49.692Z,78.99
2017-08-24T02:55:02.005Z,78.9
2017-08-24T02:56:14.701Z,78.8
2017-08-24T02:57:26.971Z,78.61
2017-08-24T02:58:38.943Z,79.19
2017-08-24T02:59:50.919Z,78.42
2017-08-24T03:01:03.247Z,78.23
2017-08-24T03:02:15.912Z,78.42
2017-08-24T03:03:28.491Z,78.52
2017-08-24T03:04:40.486Z,78.52
2017-08-24T03:05:52.423Z,78.33
2017-08-24T03:07:04.986Z,78.42
2017-08-24T03:08:17.273Z,78.71
2017-08-24T03:09:29.891Z,78.99
2017-08-24T03:10:42.156Z,79.19
2017-08-24T03:11:54.716Z,79.38
2017-08-24T03:13:07.333Z,79.28
2017-08-24T03:14:19.303Z,78.61
2017-08-24T03:15:31.877Z,78.04
2017-08-24T03:16:44.513Z,77.76
2017-08-24T03:17:56.498Z,76.61
2017-08-24T03:19:08.825Z,76.61
2017-08-24T03:20:21.432Z,76.9
2017-08-24T03:21:34.042Z,76.9
2017-08-24T03:22:46.588Z,76.81
2017-08-24T03:23:59.134Z,76.81
2017-08-24T03:25:12.048Z,77
2017-08-24T03:26:24.660Z,76.42
2017-08-24T03:27:37.228Z,76.04
2017-08-24T03:28:49.183Z,76.52
2017-08-24T03:30:01.497Z,76.04
2017-08-24T03:31:14.071Z,75.38
2017-08-24T03:32:26.339Z,75.76
2017-08-24T03:33:38.658Z,75.95
2017-08-24T03:34:50.918Z,76.71
2017-08-24T03:36:03.208Z,76.61
2017-08-24T03:37:15.468Z,76.71
2017-08-24T03:38:28.100Z,76.9
2017-08-24T03:39:40.741Z,76.9
2017-08-24T03:40:53.334Z,76.81
2017-08-24T03:42:05.615Z,76.81
2017-08-24T03:43:17.932Z,76.81
2017-08-24T03:44:29.978Z,76.71
2017-08-24T03:45:42.604Z,76.81
2017-08-24T03:46:54.559Z,76.81
2017-08-24T03:48:07.115Z,76.71
2017-08-24T03:49:19.455Z,75.76
2017-08-24T03:50:31.771Z,75.67
2017-08-24T03:51:44.049Z,74.8
2017-08-24T03:52:56.366Z,74.99
2017-08-24T03:54:08.934Z,74.9
2017-08-24T03:55:21.527Z,73.95
2017-08-24T03:56:33.573Z,73.95
2017-08-24T03:57:46.122Z,74.71
2017-08-24T03:58:58.693Z,74.8
2017-08-24T04:00:10.986Z,75.28
2017-08-24T04:01:23.234Z,75.57
2017-08-24T04:02:35.543Z,75.95
2017-08-24T04:03:47.519Z,75.47
2017-08-24T04:04:59.536Z,75.67
2017-08-24T04:06:12.195Z,75.57
2017-08-24T04:07:24.483Z,74.8
2017-08-24T04:08:36.772Z,74.33
2017-08-24T04:09:49.291Z,74.8
2017-08-24T04:11:01.838Z,74.24
2017-08-24T04:12:14.434Z,73.47
2017-08-24T04:13:27.066Z,73.1
2017-08-24T04:14:39.683Z,72.62
2017-08-24T04:15:52.237Z,72.71
2017-08-24T04:17:04.475Z,72.9
2017-08-24T04:18:16.768Z,71.95
2017-08-24T04:19:29.083Z,72.42
2017-08-24T04:20:41.633Z,72.24
2017-08-24T04:21:53.954Z,72.9
2017-08-24T04:23:06.226Z,73.38
2017-08-24T04:24:18.524Z,73.1
2017-08-24T04:25:31.035Z,73.38
2017-08-24T04:26:43.296Z,73.66
2017-08-24T04:27:55.254Z,73.38
2017-08-24T04:29:07.815Z,73.66
2017-08-24T04:30:20.381Z,73.38
2017-08-24T04:31:33.000Z,73.28
2017-08-24T04:32:45.572Z,72.9
2017-08-24T04:33:57.860Z,72.42
2017-08-24T04:35:10.126Z,72.62
2017-08-24T04:36:22.737Z,72.71
2017-08-24T04:37:35.313Z,72.24
2017-08-24T04:38:47.003Z,72.05
2017-08-24T04:39:59.284Z,71.57
2017-08-24T04:41:11.836Z,71.95
2017-08-24T04:42:24.475Z,72.42
2017-08-24T04:43:36.747Z,72.71
2017-08-24T04:44:49.016Z,72.9
2017-08-24T04:46:01.600Z,73
2017-08-24T04:47:13.888Z,72.71
2017-08-24T04:48:26.461Z,72.81
2017-08-24T04:49:39.031Z,72.33
2017-08-24T04:50:51.668Z,71.57
2017-08-24T04:52:03.923Z,72.05
2017-08-24T04:53:15.861Z,72.14
2017-08-24T04:54:28.149Z,72.05
2017-08-24T04:55:40.772Z,72.42
2017-08-24T04:56:53.107Z,71.95
2017-08-24T04:58:05.429Z,71.95
2017-08-24T04:59:18.007Z,71.57
2017-08-24T05:00:30.592Z,71.19
2017-08-24T05:01:42.537Z,71.38
2017-08-24T05:02:55.040Z,71.67
2017-08-24T05:04:07.684Z,71.09
2017-08-24T05:05:20.266Z,71.03
2017-08-24T05:06:32.237Z,71.09
2017-08-24T05:07:44.508Z,71.19
2017-08-24T05:08:56.814Z,71.42
2017-08-24T05:10:09.374Z,71.22
2017-08-24T05:11:21.983Z,71.32
2017-08-24T05:12:34.275Z,71.61
2017-08-24T05:13:46.821Z,71.61
2017-08-24T05:14:59.488Z,71.13
2017-08-24T05:16:12.039Z,71.13
2017-08-24T05:17:24.030Z,71.42
2017-08-24T05:18:36.337Z,71.22
2017-08-24T05:19:48.598Z,71.32
2017-08-24T05:21:00.896Z,70.94
2017-08-24T05:22:13.466Z,71.13
2017-08-24T05:23:26.032Z,70.37
2017-08-24T05:24:38.853Z,70.08
2017-08-24T05:25:51.492Z,70.27
2017-08-24T05:27:03.438Z,70.37
2017-08-24T05:28:15.991Z,69.64
2017-08-24T05:29:28.279Z,69.54
2017-08-24T05:30:40.880Z,69.45
2017-08-24T05:31:53.482Z,69.17
2017-08-24T05:33:05.779Z,69.07
2017-08-24T05:34:18.383Z,69.35
2017-08-24T05:35:31.030Z,68.78
2017-08-24T05:36:43.554Z,68.98
2017-08-24T05:37:55.831Z,69.07
2017-08-24T05:39:08.462Z,68.34
2017-08-24T05:40:20.693Z,68.63
2017-08-24T05:41:33.295Z,68.34
2017-08-24T05:42:45.606Z,68.72
2017-08-24T05:43:57.922Z,68.72
2017-08-24T05:45:10.224Z,68.72
2017-08-24T05:46:22.718Z,68.72
2017-08-24T05:47:35.275Z,68.44
2017-08-24T05:48:47.867Z,68.66
2017-08-24T05:50:00.143Z,68.85
2017-08-24T05:51:12.745Z,68.38
2017-08-24T05:52:25.365Z,68.38
2017-08-24T05:53:37.983Z,68.76
2017-08-24T05:54:50.274Z,69.81
2017-08-24T05:56:02.842Z,69.33
2017-08-24T05:57:14.812Z,69.81
2017-08-24T05:58:27.383Z,69.9
2017-08-24T05:59:40.029Z,71.04
2017-08-24T06:00:52.599Z,70.57
2017-08-24T06:02:04.861Z,70.38
2017-08-24T06:03:17.116Z,70.42
2017-08-24T06:04:29.404Z,70.7
2017-08-24T06:05:41.960Z,70.42
2017-08-24T06:06:54.608Z,70.51
2017-08-24T06:08:07.248Z,71.46
2017-08-24T06:09:19.492Z,71.27
2017-08-24T06:10:31.514Z,70.51
2017-08-24T06:11:44.077Z,70.26
2017-08-24T06:12:56.041Z,70.54
2017-08-24T06:14:08.318Z,69.78
2017-08-24T06:15:20.899Z,70.07
2017-08-24T06:16:33.198Z,72.83
2017-08-24T06:17:45.762Z,73.83
2017-08-24T06:18:58.307Z,76.03
2017-08-24T06:20:10.997Z,75.35
2017-08-24T06:21:23.602Z,77.17
2017-08-24T06:22:36.194Z,76.98
2017-08-24T06:23:48.794Z,76.73
2017-08-24T06:25:01.074Z,78.26
2017-08-24T06:26:13.457Z,78.83
2017-08-24T06:27:25.728Z,78.45
2017-08-24T06:28:38.035Z,78.74
2017-08-24T06:29:50.023Z,78.49
2017-08-24T06:31:02.663Z,78.39
2017-08-24T06:32:15.227Z,78.39
2017-08-24T06:33:27.509Z,79.06
2017-08-24T06:34:39.780Z,79.54
2017-08-24T06:35:52.079Z,79.06
2017-08-24T06:37:03.753Z,80.92
2017-08-24T06:38:16.023Z,81.49
2017-08-24T06:39:28.677Z,82.54
2017-08-24T06:40:41.504Z,82.54
2017-08-24T06:41:54.079Z,84.75
2017-08-24T06:43:06.754Z,86.7
2017-08-24T06:44:19.345Z,89
2017-08-24T06:45:31.921Z,89.19
2017-08-24T06:46:44.282Z,89.86
2017-08-24T06:47:56.846Z,90.67
2017-08-24T06:49:09.181Z,92.49
2017-08-24T06:50:21.737Z,92.01
2017-08-24T06:51:34.340Z,93.64
2017-08-24T06:52:46.343Z,94.98
2017-08-24T06:53:58.648Z,95.27
2017-08-24T06:55:10.663Z,97.33
2017-08-24T06:56:23.216Z,96.84
2017-08-24T06:57:35.179Z,96.37
2017-08-24T06:58:47.178Z,97.04
2017-08-24T06:59:59.184Z,97.14
2017-08-24T07:01:11.459Z,98.76
2017-08-24T07:02:23.975Z,98.67
2017-08-24T07:03:36.491Z,99.77
2017-08-24T07:04:49.046Z,99.39
2017-08-24T07:06:01.331Z,99.99
2017-08-24T07:07:13.850Z,99.99
2017-08-24T07:08:26.083Z,99.99
2017-08-24T07:09:38.343Z,99.99
2017-08-24T07:10:50.917Z,99.99
2017-08-24T07:12:02.923Z,99.99
2017-08-24T07:13:15.015Z,99.99
2017-08-24T07:14:27.651Z,99.99
2017-08-24T07:15:40.182Z,99.99
2017-08-24T07:16:52.751Z,99.99
2017-08-24T07:18:05.019Z,99.99
2017-08-24T07:19:17.378Z,99.99
2017-08-24T07:20:30.037Z,99.99
2017-08-24T07:21:42.299Z,99.99
2017-08-24T07:22:54.876Z,99.99
2017-08-24T07:24:07.487Z,99.99
2017-08-24T07:25:19.480Z,99.99
2017-08-24T07:26:31.832Z,99.99
2017-08-24T07:27:44.385Z,99.99
2017-08-24T07:28:56.959Z,99.99
2017-08-24T07:30:09.553Z,99.99
2017-08-24T07:31:21.846Z,99.99
2017-08-24T07:32:34.109Z,99.99
2017-08-24T07:33:46.399Z,99.06
2017-08-24T07:34:58.985Z,98.34
2017-08-24T07:36:11.316Z,97.14
2017-08-24T07:37:23.867Z,95.4
2017-08-24T07:38:36.137Z,96.32
2017-08-24T07:39:48.742Z,96.08
2017-08-24T07:41:01.030Z,95.11
2017-08-24T07:42:13.607Z,94.39
2017-08-24T07:43:26.189Z,93.91
2017-08-24T07:44:38.230Z,93.08
2017-08-24T07:45:50.525Z,91.44
2017-08-24T07:47:02.816Z,91.2
2017-08-24T07:48:15.078Z,91.39
2017-08-24T07:49:27.408Z,91.39
2017-08-24T07:50:40.081Z,91.35
2017-08-24T07:51:52.366Z,87.13
2017-08-24T07:53:04.921Z,87.81
2017-08-24T07:54:17.525Z,87.71
2017-08-24T07:55:30.171Z,86.69
2017-08-24T07:56:42.773Z,87.08
2017-08-24T07:57:55.325Z,87.61
2017-08-24T07:59:07.979Z,86.06
2017-08-24T08:00:20.574Z,86.01
2017-08-24T08:01:33.170Z,85.52
2017-08-24T08:02:45.486Z,84.99
2017-08-24T08:03:57.777Z,84.25
2017-08-24T08:05:10.412Z,83.58
2017-08-24T08:06:22.707Z,82.8
2017-08-24T08:07:35.066Z,82.22
2017-08-24T08:08:47.395Z,82.41
2017-08-24T08:10:00.000Z,81.64
2017-08-24T08:11:12.654Z,80.87
2017-08-24T08:12:25.221Z,81.5
2017-08-24T08:13:37.270Z,81.98
2017-08-24T08:14:49.889Z,81.6
2017-08-24T08:16:02.493Z,81.56
2017-08-24T08:17:14.461Z,82.81
2017-08-24T08:18:27.344Z,83.78
2017-08-24T08:19:39.325Z,83.11
2017-08-24T08:20:51.922Z,82.04
2017-08-24T08:22:03.899Z,81.52
2017-08-24T08:23:16.212Z,82
2017-08-24T08:24:28.786Z,80.55
2017-08-24T08:25:41.077Z,80.65
2017-08-24T08:26:53.324Z,82.2
2017-08-24T08:28:05.665Z,81.04
2017-08-24T08:29:17.341Z,82.15
2017-08-24T08:30:29.626Z,82.73
2017-08-24T08:31:42.230Z,83.12
2017-08-24T08:32:54.885Z,85.35
2017-08-24T08:34:06.861Z,85.53
2017-08-24T08:35:18.602Z,81.38
2017-08-24T08:36:31.229Z,80.51
2017-08-24T08:37:43.813Z,79.93
2017-08-24T08:38:56.376Z,80.9
2017-08-24T08:40:08.031Z,81.96
2017-08-24T08:41:20.712Z,81.48
2017-08-24T08:42:33.369Z,81.09
2017-08-24T08:43:46.040Z,81.38
2017-08-24T08:44:58.634Z,80.8
2017-08-24T08:46:10.625Z,79.83
2017-08-24T08:47:22.882Z,81.77
2017-08-24T08:48:34.850Z,84.28
2017-08-24T08:49:46.490Z,85.15
2017-08-24T08:50:59.109Z,84.24
2017-08-24T08:52:11.080Z,84.09
2017-08-24T08:53:23.686Z,83.51
2017-08-24T08:54:36.320Z,83.31
2017-08-24T08:55:48.973Z,83.22
2017-08-24T08:57:01.587Z,83.8
2017-08-24T08:58:13.257Z,83.51
2017-08-24T08:59:25.853Z,83.22
2017-08-24T09:00:38.123Z,82.64
2017-08-24T09:01:49.822Z,81.57
2017-08-24T09:03:02.064Z,81.29
2017-08-24T09:04:14.686Z,80.94
2017-08-24T09:05:26.717Z,80.74
2017-08-24T09:06:38.735Z,81.71
2017-08-24T09:07:50.975Z,80.65
2017-08-24T09:09:03.242Z,79.68
2017-08-24T09:10:14.942Z,80.69
2017-08-24T09:11:27.246Z,80.3
2017-08-24T09:12:39.598Z,79.52
2017-08-24T09:13:52.118Z,78.66
2017-08-24T09:15:04.073Z,78.17
2017-08-24T09:16:16.685Z,78.27
2017-08-24T09:17:29.292Z,77.2
2017-08-24T09:18:41.867Z,78.08
2017-08-24T09:19:54.142Z,78.36
2017-08-24T09:21:06.136Z,78.69
2017-08-24T09:22:18.470Z,77.24
2017-08-24T09:23:31.103Z,77.82
2017-08-24T09:24:43.077Z,77.34
2017-08-24T09:25:55.372Z,77.24
2017-08-24T09:27:07.665Z,78.31
2017-08-24T09:28:20.010Z,78.89
2017-08-24T09:29:32.294Z,79.17
2017-08-24T09:30:44.900Z,79.57
2017-08-24T09:31:57.186Z,79.57
2017-08-24T09:33:09.139Z,79.85
2017-08-24T09:34:21.769Z,78.99
2017-08-24T09:35:34.322Z,79.85
2017-08-24T09:36:46.294Z,80.05
2017-08-24T09:37:58.882Z,79.47
2017-08-24T09:39:11.138Z,79.47
2017-08-24T09:40:23.441Z,79.95
2017-08-24T09:41:35.743Z,78.46
2017-08-24T09:42:47.727Z,77.4
2017-08-24T09:43:59.720Z,77.88
2017-08-24T09:45:11.987Z,79.52
2017-08-24T09:46:24.608Z,79.24
2017-08-24T09:47:36.847Z,79.62
2017-08-24T09:48:49.125Z,79.24
2017-08-24T09:50:01.351Z,78.75
2017-08-24T09:51:13.979Z,78.91
2017-08-24T09:52:26.541Z,79.68
2017-08-24T09:53:38.815Z,82.48
2017-08-24T09:54:50.482Z,84.47
2017-08-24T09:56:03.102Z,88.43
2017-08-24T09:57:14.712Z,90.27
2017-08-24T09:58:26.615Z,94.19
2017-08-24T09:59:38.822Z,95.35
2017-08-24T10:00:51.081Z,96.94
2017-08-24T10:02:03.431Z,99.26
2017-08-24T10:03:15.723Z,99.4
2017-08-24T10:04:28.346Z,99.88
2017-08-24T10:05:40.882Z,99.99
2017-08-24T10:06:53.163Z,99.99
2017-08-24T10:08:05.478Z,99.99
2017-08-24T10:09:18.053Z,99.99
2017-08-24T10:10:30.655Z,99.99
2017-08-24T10:11:42.675Z,99.99
2017-08-24T10:12:55.330Z,99.99
2017-08-24T10:14:07.934Z,99.99
2017-08-24T10:15:20.566Z,99.99
2017-08-24T10:16:32.517Z,99.99
2017-08-24T10:17:44.824Z,99.99
2017-08-24T10:18:57.452Z,99.99
2017-08-24T10:20:10.056Z,99.99
2017-08-24T10:21:22.643Z,99.99
2017-08-24T10:22:34.907Z,99.99
2017-08-24T10:23:47.306Z,99.99
2017-08-24T10:24:59.944Z,99.99
2017-08-24T10:26:11.913Z,99.99
2017-08-24T10:27:24.572Z,99.99
2017-08-24T10:28:36.901Z,99.99
2017-08-24T10:29:49.717Z,99.99
2017-08-24T10:31:02.994Z,99.99
2017-08-24T10:32:16.012Z,99.99
2017-08-24T10:33:27.964Z,99.99
2017-08-24T10:34:40.235Z,99.99
2017-08-24T10:35:52.522Z,99.99
2017-08-24T10:37:04.843Z,99.99
2017-08-24T10:38:17.422Z,99.99
2017-08-24T10:39:30.278Z,99.99
2017-08-24T10:40:42.891Z,99.99
2017-08-24T10:42:09.480Z,99.99
2017-08-24T10:43:21.757Z,99.99
2017-08-24T10:44:34.454Z,99.99
2017-08-24T10:46:16.254Z,99.99
2017-08-24T10:47:28.292Z,99.99
2017-08-24T10:48:40.570Z,99.99
2017-08-24T10:49:52.822Z,99.99
2017-08-24T10:51:04.162Z,99.99
2017-08-24T10:52:16.824Z,99.99
2017-08-24T10:53:29.459Z,99.99
2017-08-24T10:54:42.065Z,99.99
2017-08-24T10:55:54.334Z,99.84
2017-08-24T10:57:06.908Z,99.99
2017-08-24T10:58:19.159Z,99.99
2017-08-24T10:59:31.801Z,99.99
2017-08-24T11:00:43.476Z,99.98
2017-08-24T11:01:56.079Z,99.02
2017-08-24T11:03:08.381Z,98.1
2017-08-24T11:04:20.681Z,96.89
2017-08-24T11:05:32.954Z,94.96
2017-08-24T11:06:45.221Z,93.46
2017-08-24T11:07:57.532Z,90.47
2017-08-24T11:09:09.489Z,90.99
2017-08-24T11:10:21.736Z,91.86
2017-08-24T11:11:34.324Z,92.06
2017-08-24T11:12:46.595Z,92.88
2017-08-24T11:13:58.568Z,91.62
2017-08-24T11:15:10.839Z,92.2
2017-08-24T11:16:22.887Z,92.05
2017-08-24T11:17:34.865Z,92.54
2017-08-24T11:18:47.186Z,91.18
2017-08-24T11:19:59.725Z,91.71
2017-08-24T11:21:11.402Z,91.13
2017-08-24T11:22:24.037Z,89.72
2017-08-24T11:23:36.044Z,89.23
2017-08-24T11:24:48.596Z,89.62
2017-08-24T11:26:01.247Z,88.7
2017-08-24T11:27:13.869Z,85.4
2017-08-24T11:28:26.471Z,86.95
2017-08-24T11:29:38.462Z,86.9
2017-08-24T11:30:50.774Z,85.64
2017-08-24T11:32:03.120Z,84.96
2017-08-24T11:33:15.109Z,83.15
2017-08-24T11:34:27.425Z,81.41
2017-08-24T11:35:38.826Z,80.87
2017-08-24T11:36:51.111Z,80.68
2017-08-24T11:38:02.848Z,79.41
2017-08-24T11:39:15.356Z,80.38
2017-08-24T11:40:27.619Z,80.29
2017-08-24T11:41:39.851Z,80.58
2017-08-24T11:42:52.489Z,80.96
2017-08-24T11:44:04.845Z,80.77
2017-08-24T11:45:17.590Z,79.64
2017-08-24T11:46:30.277Z,80.23
2017-08-24T11:47:42.613Z,81.01
2017-08-24T11:48:54.853Z,80.13
2017-08-24T11:50:06.855Z,79.45
2017-08-24T11:51:19.437Z,79.45
2017-08-24T11:52:32.046Z,79.84
2017-08-24T11:53:44.688Z,79.39
2017-08-24T11:54:57.305Z,79
2017-08-24T11:56:09.545Z,79
2017-08-24T11:57:21.488Z,78.52
2017-08-24T11:58:33.636Z,78.52
2017-08-24T11:59:45.878Z,78.42
2017-08-24T12:00:58.390Z,79.78
2017-08-24T12:02:10.396Z,79.16
2017-08-24T12:03:23.075Z,79.55
2017-08-24T12:04:35.391Z,79.88
2017-08-24T12:05:47.909Z,79.78
2017-08-24T12:06:59.877Z,79.78
2017-08-24T12:08:12.123Z,79.2
2017-08-24T12:10:51.848Z,79.39
2017-08-24T12:12:03.510Z,79.06
2017-08-24T12:13:16.085Z,80.13
2017-08-24T12:14:28.052Z,80.23
2017-08-24T12:15:40.578Z,79.84
2017-08-24T12:16:53.159Z,80.23
2017-08-24T12:18:05.428Z,79.55
2017-08-24T12:19:18.044Z,80.32
2017-08-24T12:20:30.556Z,79.64
2017-08-24T12:21:57.815Z,79.74
2017-08-24T12:23:10.066Z,80.04
2017-08-24T12:24:22.361Z,79.74
2017-08-24T12:25:34.951Z,79.55
2017-08-24T12:26:47.641Z,79.97
2017-08-24T12:28:00.312Z,79.39
2017-08-24T12:29:12.608Z,79.68
2017-08-24T12:30:24.934Z,79.59
2017-08-24T12:31:36.936Z,79
2017-08-24T12:32:49.582Z,77.84
2017-08-24T12:34:01.604Z,77.94
2017-08-24T12:35:14.185Z,77.84
2017-08-24T12:36:26.830Z,77.15
2017-08-24T12:37:39.357Z,77.64
2017-08-24T12:38:51.642Z,77.06
2017-08-24T12:40:03.899Z,77.35
2017-08-24T12:41:16.185Z,77.84
2017-08-24T12:42:28.773Z,77.84
2017-08-24T12:43:41.062Z,78.13
2017-08-24T12:44:53.314Z,77.39
2017-08-24T12:46:05.967Z,76.32
2017-08-24T12:47:18.283Z,76.57
2017-08-24T12:48:30.528Z,77.15
2017-08-24T12:49:42.508Z,77.74
2017-08-24T12:50:55.143Z,76.92
2017-08-24T12:52:07.466Z,76.92
2017-08-24T12:53:20.034Z,78.48
2017-08-24T12:54:32.679Z,78.92
2017-08-24T12:55:44.650Z,79.41
2017-08-24T12:56:57.169Z,79.12
2017-08-24T12:58:09.809Z,79.76
2017-08-24T12:59:22.019Z,79.86
2017-08-24T13:00:34.558Z,80.01
2017-08-24T13:01:46.877Z,80.88
2017-08-24T13:02:58.579Z,81.18
2017-08-24T13:04:10.837Z,80.98
2017-08-24T13:05:23.157Z,81.08
2017-08-24T13:06:35.428Z,81.62
2017-08-24T13:07:48.016Z,82.1
2017-08-24T13:09:00.827Z,83.37
2017-08-24T13:10:13.072Z,83.75
2017-08-24T13:11:25.697Z,83.65
2017-08-24T13:12:38.338Z,83.85
2017-08-24T13:13:50.577Z,83.65
2017-08-24T13:15:02.506Z,83.65
2017-08-24T13:16:15.104Z,83.95
2017-08-24T13:17:27.690Z,84.24
2017-08-24T13:18:40.193Z,84.57
2017-08-24T13:19:52.513Z,84.77
2017-08-24T13:21:04.739Z,84.19
2017-08-24T13:22:17.055Z,83.99
2017-08-24T13:23:29.367Z,84.77
2017-08-24T13:24:41.613Z,84.77
2017-08-24T13:25:53.917Z,84.47
2017-08-24T13:27:06.587Z,84.19
2017-08-24T13:28:18.858Z,84.57
2017-08-24T13:29:31.415Z,84.77
2017-08-24T13:30:43.355Z,85.25
2017-08-24T13:31:55.724Z,86.02
2017-08-24T13:33:08.026Z,85.64
2017-08-24T13:34:20.316Z,85.83
2017-08-24T13:35:32.612Z,85.54
2017-08-24T13:36:45.152Z,85.54
2017-08-24T13:37:57.406Z,85.79
2017-08-24T13:39:09.672Z,86.18
2017-08-24T13:40:21.667Z,85.69
2017-08-24T13:41:34.320Z,86.37
2017-08-24T13:42:46.634Z,87.01
2017-08-24T13:43:58.950Z,87.1
2017-08-24T13:45:11.532Z,87.4
2017-08-24T13:46:23.517Z,87.68
2017-08-24T13:47:36.013Z,88.03
2017-08-24T13:48:48.276Z,88.03
2017-08-24T13:50:00.596Z,88.32
2017-08-24T13:51:12.843Z,88.81
2017-08-24T13:52:25.521Z,89.05
2017-08-24T13:53:37.780Z,89.63
2017-08-24T13:54:50.435Z,89.92
2017-08-24T13:56:02.743Z,90.17
2017-08-24T13:57:15.026Z,90.94
2017-08-24T13:58:26.998Z,91.04
2017-08-24T13:59:39.288Z,91.62
2017-08-24T14:00:51.919Z,91.77
2017-08-24T14:02:04.294Z,92.06
2017-08-24T14:03:16.917Z,92.54
2017-08-24T14:04:29.244Z,92.64
2017-08-24T14:05:41.800Z,92.44
2017-08-24T14:06:54.150Z,92.35
2017-08-24T14:08:05.851Z,92.93
2017-08-24T14:09:18.462Z,93.02
2017-08-24T14:10:31.120Z,92.93
2017-08-24T14:11:43.719Z,93.32
2017-08-24T14:12:56.321Z,93.7
2017-08-24T14:14:08.254Z,93.99
2017-08-24T14:15:20.888Z,93.8
2017-08-24T14:16:33.182Z,93.8
2017-08-24T14:17:45.456Z,94.09
2017-08-24T14:18:57.475Z,94.09
2017-08-24T14:20:09.693Z,93.9
2017-08-24T14:21:22.322Z,94.48
2017-08-24T14:22:34.253Z,93.99
2017-08-24T14:23:46.750Z,94.09
2017-08-24T14:24:58.714Z,94.33
2017-08-24T14:26:11.367Z,94.43
2017-08-24T14:27:23.955Z,94.57
2017-08-24T14:28:35.915Z,94.67
2017-08-24T14:29:48.503Z,94.76
2017-08-24T14:31:00.788Z,95.06
2017-08-24T14:32:13.415Z,94.76
2017-08-24T14:33:25.992Z,94.28
2017-08-24T14:34:38.604Z,94.57
2017-08-24T14:35:51.217Z,94.86
2017-08-24T14:37:03.523Z,94.76
2017-08-24T14:38:16.172Z,94.96
2017-08-24T14:39:28.461Z,94.96
2017-08-24T14:40:40.758Z,94.67
2017-08-24T14:41:53.099Z,94.86
2017-08-24T14:43:05.352Z,95.01
2017-08-24T14:44:16.965Z,94.33
2017-08-24T14:45:29.615Z,95.2
2017-08-24T14:46:42.273Z,95.01
2017-08-24T14:47:54.850Z,94.81
2017-08-24T14:49:06.813Z,94.81
2017-08-24T14:50:19.117Z,94.52
2017-08-24T14:51:31.709Z,94.67
2017-08-24T14:52:44.495Z,94.96
2017-08-24T14:53:56.790Z,95.54
2017-08-24T14:55:08.747Z,96.22
2017-08-24T14:56:21.289Z,96.51
2017-08-24T14:57:33.239Z,96.41
2017-08-24T14:58:45.804Z,96.22
2017-08-24T14:59:58.051Z,96.22
2017-08-24T15:01:10.033Z,96.46
2017-08-24T15:02:22.354Z,96.8
2017-08-24T15:03:34.649Z,96.8
2017-08-24T15:04:46.602Z,96.7
2017-08-24T15:05:58.872Z,96.7
2017-08-24T15:07:11.453Z,96.99
2017-08-24T15:08:23.776Z,96.89
2017-08-24T15:09:36.363Z,96.94
2017-08-24T15:10:48.693Z,96.65
2017-08-24T15:12:01.287Z,96.36
2017-08-24T15:13:13.828Z,96.56
2017-08-24T15:14:26.166Z,97.33
2017-08-24T15:15:38.753Z,97.42
2017-08-24T15:16:51.071Z,97.04
2017-08-24T15:18:03.025Z,97.04
2017-08-24T15:19:15.370Z,97.33
2017-08-24T15:20:27.980Z,97.04
2017-08-24T15:21:40.563Z,97.23
2017-08-24T15:22:52.851Z,97.23
2017-08-24T15:24:05.488Z,96.84
2017-08-24T15:25:17.802Z,96.56
2017-08-24T15:26:30.092Z,96.94
2017-08-24T15:27:42.093Z,96.94
2017-08-24T15:28:54.339Z,97.33
2017-08-24T15:30:06.636Z,97.42
2017-08-24T15:31:19.216Z,97.33
2017-08-24T15:32:31.760Z,97.04
2017-08-24T15:33:43.755Z,97.62
2017-08-24T15:34:56.357Z,97.72
2017-08-24T15:36:08.669Z,97.14
2017-08-24T15:37:21.265Z,97.62